Terminal Aerodrome Forecast
Issued by NWS

Home | Current Version | Previous Version | Text Only | Print | Product List | Glossary On
Versions: 1 2 3 4 5 6 7 8 9 10 11 12
204
FTPA31 PHFO 261123
TAFHKO
TAF
PHKO 261123Z 2612/2712 06006KT P6SM FEW045 FEW050
     FM261900 24009KT P6SM FEW045 SCT060
     FM270600 VRB05KT P6SM FEW030 SCT050=

USA.gov is the U.S. government's official web portal to all federal, state and local government web resources and services.